createdAt,value
2022-12-17T00:00:29.459Z,69.30
2022-12-17T00:03:19.139Z,63.38
2022-12-17T00:06:05.217Z,59.65
2022-12-17T00:08:50.752Z,69.53
2022-12-17T00:11:37.216Z,60.05
2022-12-17T00:14:22.490Z,60.88
2022-12-17T00:17:08.053Z,56.83
2022-12-17T00:19:53.319Z,59.65
2022-12-17T00:22:42.001Z,65.18
2022-12-17T00:25:28.343Z,54.65
2022-12-17T00:28:13.650Z,68.30
2022-12-17T00:30:59.036Z,51.72
2022-12-17T00:33:44.510Z,62.67
2022-12-17T00:36:31.503Z,64.68
2022-12-17T00:39:18.505Z,62.22
2022-12-17T00:42:04.065Z,59.33
2022-12-17T00:44:49.272Z,59.65
2022-12-17T00:47:34.927Z,52.70
2022-12-17T00:50:21.133Z,64.13
2022-12-17T00:53:10.761Z,60.35
2022-12-17T00:55:56.210Z,61.83
2022-12-17T00:58:42.332Z,62.17
2022-12-17T01:01:28.623Z,59.53
2022-12-17T01:04:13.912Z,66.32
2022-12-17T01:07:00.167Z,63.55
2022-12-17T01:09:46.659Z,66.65
2022-12-17T01:12:32.067Z,64.28
2022-12-17T01:15:17.620Z,62.38
2022-12-17T01:18:03.148Z,61.22
2022-12-17T01:20:48.882Z,51.90
2022-12-17T01:23:34.661Z,51.92
2022-12-17T01:26:20.124Z,61.15
2022-12-17T01:29:05.605Z,58.03
2022-12-17T01:31:51.944Z,59.60
2022-12-17T01:34:37.574Z,59.35
2022-12-17T01:37:23.313Z,50.15
2022-12-17T01:40:08.924Z,43.65
2022-12-17T01:43:02.248Z,43.42
2022-12-17T01:46:01.966Z,42.63
2022-12-17T01:49:03.179Z,46.55
2022-12-17T01:51:49.947Z,42.10
2022-12-17T01:54:37.263Z,37.25
2022-12-17T01:57:26.552Z,39.47
2022-12-17T02:00:32.381Z,34.85
2022-12-17T02:03:19.287Z,36.58
2022-12-17T02:06:22.830Z,37.95
2022-12-17T02:09:34.431Z,37.10
2022-12-17T02:12:35.906Z,34.95
2022-12-17T02:15:40.198Z,37.20
2022-12-17T02:18:39.657Z,35.33
2022-12-17T02:21:33.294Z,33.08
2022-12-17T02:24:46.768Z,26.77
2022-12-17T02:27:33.966Z,34.38
2022-12-17T02:30:23.555Z,39.50
2022-12-17T02:33:11.689Z,37.90
2022-12-17T02:36:12.447Z,33.88
2022-12-17T02:39:00.599Z,34.13
2022-12-17T02:41:52.831Z,32.67
2022-12-17T02:44:40.297Z,34.08
2022-12-17T02:47:28.273Z,35.42
2022-12-17T02:50:13.988Z,30.95
2022-12-17T02:53:04.123Z,35.42
2022-12-17T02:55:50.065Z,33.95
2022-12-17T02:58:36.845Z,31.35
2022-12-17T03:01:22.602Z,34.53
2022-12-17T03:04:08.292Z,27.65
2022-12-17T03:06:53.596Z,28.67
2022-12-17T03:09:38.824Z,34.70
2022-12-17T03:12:24.378Z,26.38
2022-12-17T03:15:10.054Z,27.83
2022-12-17T03:17:58.430Z,27.60
2022-12-17T03:20:43.930Z,30.98
2022-12-17T03:23:30.974Z,26.58
2022-12-17T03:26:21.098Z,28.98
2022-12-17T03:29:07.155Z,29.60
2022-12-17T03:31:53.111Z,26.88
2022-12-17T03:34:38.428Z,29.40
2022-12-17T03:37:23.867Z,30.95
2022-12-17T03:40:10.096Z,28.23
2022-12-17T03:42:55.648Z,26.00
2022-12-17T03:45:41.302Z,31.17
2022-12-17T03:48:30.256Z,29.27
2022-12-17T03:51:16.488Z,25.55
2022-12-17T03:54:02.441Z,29.02
2022-12-17T03:56:48.398Z,23.95
2022-12-17T03:59:34.028Z,28.38
2022-12-17T04:02:20.457Z,21.67
2022-12-17T04:05:06.138Z,25.63
2022-12-17T04:07:51.744Z,23.38
2022-12-17T04:10:37.169Z,20.30
2022-12-17T04:13:23.112Z,25.73
2022-12-17T04:16:09.705Z,25.60
2022-12-17T04:18:55.117Z,21.42
2022-12-17T04:21:41.334Z,23.98
2022-12-17T04:24:26.846Z,22.13
2022-12-17T04:27:12.340Z,22.95
2022-12-17T04:29:57.955Z,23.63
2022-12-17T04:32:43.607Z,22.52
2022-12-17T04:35:29.236Z,23.80
2022-12-17T04:38:14.794Z,24.27
2022-12-17T04:41:00.134Z,25.10
2022-12-17T04:43:45.679Z,23.42
2022-12-17T04:46:32.488Z,22.48
2022-12-17T04:49:17.912Z,24.58
2022-12-17T04:52:03.165Z,22.02
2022-12-17T04:54:48.313Z,18.33
2022-12-17T04:57:33.740Z,20.85
2022-12-17T05:00:20.771Z,22.67
2022-12-17T05:03:06.166Z,23.05
2022-12-17T05:05:51.597Z,23.42
2022-12-17T05:08:41.368Z,18.35
2022-12-17T05:11:26.951Z,22.40
2022-12-17T05:14:12.508Z,23.30
2022-12-17T05:16:59.172Z,22.95
2022-12-17T05:19:44.633Z,20.50
2022-12-17T05:22:29.929Z,21.58
2022-12-17T05:25:15.319Z,24.38
2022-12-17T05:28:00.958Z,21.48
2022-12-17T05:30:46.105Z,25.65
2022-12-17T05:33:31.375Z,24.02
2022-12-17T05:36:19.466Z,27.33
2022-12-17T05:39:06.472Z,27.02
2022-12-17T05:41:51.964Z,31.17
2022-12-17T05:44:37.321Z,28.30
2022-12-17T05:47:22.597Z,27.02
2022-12-17T05:50:08.401Z,26.70
2022-12-17T05:52:53.573Z,27.05
2022-12-17T05:55:39.011Z,22.83
2022-12-17T05:58:27.947Z,23.90
2022-12-17T06:01:17.573Z,20.42
2022-12-17T06:04:03.051Z,23.52
2022-12-17T06:06:48.781Z,20.58
2022-12-17T06:09:34.521Z,22.23
2022-12-17T06:12:20.688Z,21.35
2022-12-17T06:15:06.303Z,24.80
2022-12-17T06:17:51.739Z,23.33
2022-12-17T06:20:37.353Z,28.23
2022-12-17T06:23:25.480Z,22.58
2022-12-17T06:26:15.199Z,22.42
2022-12-17T06:29:02.564Z,22.55
2022-12-17T06:31:52.568Z,25.40
2022-12-17T06:34:37.871Z,22.15
2022-12-17T06:37:23.249Z,24.20
2022-12-17T06:40:08.856Z,23.35
2022-12-17T06:43:14.199Z,23.55
2022-12-17T06:45:59.751Z,20.35
2022-12-17T06:48:45.409Z,25.13
2022-12-17T06:51:44.661Z,28.63
2022-12-17T06:54:30.449Z,29.85
2022-12-17T06:57:15.758Z,26.88
2022-12-17T07:00:01.768Z,26.52
2022-12-17T07:03:04.078Z,25.73
2022-12-17T07:05:49.416Z,20.10
2022-12-17T07:08:35.027Z,21.52
2022-12-17T07:11:21.330Z,20.67
2022-12-17T07:14:06.560Z,23.05
2022-12-17T07:16:51.928Z,18.45
2022-12-17T07:19:37.447Z,15.45
2022-12-17T07:22:23.108Z,21.42
2022-12-17T07:25:08.444Z,19.05
2022-12-17T07:27:54.016Z,18.83
2022-12-17T07:30:39.474Z,19.23
2022-12-17T07:33:27.896Z,15.32
2022-12-17T07:36:14.296Z,19.33
2022-12-17T07:39:00.775Z,18.05
2022-12-17T07:41:46.083Z,19.15
2022-12-17T07:44:31.601Z,18.85
2022-12-17T07:47:17.334Z,21.58
2022-12-17T07:50:02.629Z,25.10
2022-12-17T07:52:48.201Z,23.02
2022-12-17T07:55:33.894Z,26.20
2022-12-17T07:58:21.411Z,25.58
2022-12-17T08:01:06.760Z,22.00
2022-12-17T08:03:52.091Z,20.50
2022-12-17T08:06:37.439Z,24.73
2022-12-17T08:09:23.692Z,23.60
2022-12-17T08:12:13.647Z,19.08
2022-12-17T08:14:59.275Z,20.10
2022-12-17T08:17:44.728Z,25.33
2022-12-17T08:20:30.582Z,21.58
2022-12-17T08:23:24.956Z,20.98
2022-12-17T08:26:11.813Z,23.67
2022-12-17T08:28:57.326Z,23.33
2022-12-17T08:31:59.887Z,20.83
2022-12-17T08:34:47.145Z,18.75
2022-12-17T08:37:32.983Z,23.88
2022-12-17T08:40:18.289Z,21.27
2022-12-17T08:43:03.870Z,22.25
2022-12-17T08:45:53.366Z,22.23
2022-12-17T08:48:39.039Z,21.92
2022-12-17T08:51:24.536Z,23.33
2022-12-17T08:54:11.180Z,24.20
2022-12-17T08:56:56.734Z,25.77
2022-12-17T08:59:42.743Z,23.90
2022-12-17T09:02:30.088Z,23.52
2022-12-17T09:05:15.484Z,21.75
2022-12-17T09:08:00.761Z,25.92
2022-12-17T09:10:46.277Z,23.80
2022-12-17T09:13:31.849Z,22.63
2022-12-17T09:16:17.632Z,22.00
2022-12-17T09:19:02.961Z,24.45
2022-12-17T09:21:49.856Z,22.77
2022-12-17T09:24:35.299Z,20.42
2022-12-17T09:27:21.003Z,20.08
2022-12-17T09:30:08.197Z,25.15
2022-12-17T09:32:56.598Z,24.98
2022-12-17T09:35:42.234Z,28.95
2022-12-17T09:38:36.157Z,21.50
2022-12-17T09:41:45.016Z,20.83
2022-12-17T09:45:03.122Z,20.92
2022-12-17T09:48:13.582Z,19.02
2022-12-17T09:50:58.876Z,16.40
2022-12-17T09:54:02.089Z,16.75
2022-12-17T09:56:50.004Z,18.05
2022-12-17T09:59:55.586Z,16.88
2022-12-17T10:02:46.704Z,17.38
2022-12-17T10:05:43.148Z,17.00
2022-12-17T10:08:33.034Z,20.58
2022-12-17T10:11:43.037Z,16.55
2022-12-17T10:14:35.990Z,21.48
2022-12-17T10:17:22.261Z,19.25
2022-12-17T10:20:13.362Z,19.98
2022-12-17T10:23:07.644Z,20.92
2022-12-17T10:25:56.185Z,21.05
2022-12-17T10:28:43.449Z,20.63
2022-12-17T10:31:29.984Z,21.08
2022-12-17T10:34:16.351Z,20.13
2022-12-17T10:37:10.389Z,21.58
2022-12-17T10:39:57.106Z,22.90
2022-12-17T10:42:56.931Z,20.20
2022-12-17T10:45:48.688Z,23.42
2022-12-17T10:48:48.644Z,21.58
2022-12-17T10:51:40.699Z,19.05
2022-12-17T10:54:42.628Z,21.92
2022-12-17T10:57:51.215Z,17.52
2022-12-17T11:00:36.564Z,19.45
2022-12-17T11:03:23.770Z,22.25
2022-12-17T11:06:13.618Z,25.77
2022-12-17T11:09:00.236Z,23.05
2022-12-17T11:11:45.999Z,22.77
2022-12-17T11:14:33.219Z,24.02
2022-12-17T11:17:23.748Z,18.42
2022-12-17T11:20:17.818Z,22.55
2022-12-17T11:23:17.004Z,23.65
2022-12-17T11:26:08.883Z,22.92
2022-12-17T11:29:11.722Z,24.48
2022-12-17T11:32:21.812Z,26.15
2022-12-17T11:35:28.338Z,26.02
2022-12-17T11:38:25.666Z,25.42
2022-12-17T11:41:17.448Z,22.52
2022-12-17T11:44:11.005Z,23.05
2022-12-17T11:47:20.668Z,24.63
2022-12-17T11:50:25.307Z,26.10
2022-12-17T11:53:28.228Z,27.55
2022-12-17T11:56:28.327Z,28.65
2022-12-17T11:59:28.218Z,30.77
2022-12-17T12:02:36.471Z,34.08
2022-12-17T12:06:11.646Z,33.92
2022-12-17T12:09:28.085Z,32.35
2022-12-17T12:12:21.841Z,31.00
2022-12-17T12:15:07.076Z,24.80
2022-12-17T12:18:07.406Z,24.85
2022-12-17T12:21:18.259Z,29.90
2022-12-17T12:24:36.113Z,28.98
2022-12-17T12:27:36.580Z,36.00
2022-12-17T12:30:36.775Z,32.25
2022-12-17T12:33:46.012Z,36.03
2022-12-17T12:36:35.721Z,31.05
2022-12-17T12:39:21.437Z,27.77
2022-12-17T12:42:22.390Z,31.00
2022-12-17T12:45:49.381Z,30.50
2022-12-17T12:49:13.110Z,28.52
2022-12-17T12:51:58.545Z,27.80
2022-12-17T12:54:49.172Z,32.72
2022-12-17T12:58:07.237Z,32.45
2022-12-17T13:01:12.888Z,33.97
2022-12-17T13:04:11.284Z,33.85
2022-12-17T13:06:48.964Z,31.00
2022-12-17T13:09:15.748Z,28.67
2022-12-17T13:11:53.675Z,38.92
2022-12-17T13:14:26.817Z,34.13
2022-12-17T13:17:14.546Z,36.50
2022-12-17T13:19:43.730Z,30.42
2022-12-17T13:22:23.407Z,34.28
2022-12-17T13:25:30.675Z,41.33
2022-12-17T13:27:58.489Z,35.67
2022-12-17T13:31:00.458Z,33.38
2022-12-17T13:33:46.304Z,32.90
2022-12-17T13:36:46.120Z,37.70
2022-12-17T13:39:36.473Z,33.15
2022-12-17T13:42:04.195Z,35.30
2022-12-17T13:44:46.704Z,29.35
2022-12-17T13:47:26.344Z,38.17
2022-12-17T13:50:31.688Z,39.10
2022-12-17T13:52:45.638Z,31.95
2022-12-17T13:55:25.474Z,36.40
2022-12-17T13:57:53.510Z,30.50
2022-12-17T14:00:30.445Z,30.77
2022-12-17T14:02:58.556Z,32.75
2022-12-17T14:05:33.321Z,34.55
2022-12-17T14:08:02.901Z,40.40
2022-12-17T14:10:31.600Z,30.60
2022-12-17T14:13:13.341Z,32.55
2022-12-17T14:15:49.060Z,45.55
2022-12-17T14:18:20.717Z,33.65
2022-12-17T14:20:49.509Z,32.15
2022-12-17T14:23:36.629Z,32.30
2022-12-17T14:26:03.464Z,29.48
2022-12-17T14:28:36.142Z,34.88
2022-12-17T14:34:13.343Z,37.75
2022-12-17T14:39:23.946Z,33.17
2022-12-17T14:42:09.771Z,35.15
2022-12-17T14:44:48.137Z,34.95
2022-12-17T14:47:24.984Z,33.08
2022-12-17T14:50:02.105Z,32.95
2022-12-17T14:52:58.735Z,31.95
2022-12-17T14:55:57.902Z,32.70
2022-12-17T14:58:27.767Z,34.80
2022-12-17T15:01:07.156Z,32.53
2022-12-17T15:03:39.980Z,30.75
2022-12-17T15:06:09.675Z,33.40
2022-12-17T15:08:49.347Z,30.00
2022-12-17T15:11:19.467Z,34.47
2022-12-17T15:13:50.228Z,31.67
2022-12-17T15:16:20.068Z,43.58
2022-12-17T15:18:48.413Z,38.05
2022-12-17T15:21:16.749Z,36.08
2022-12-17T15:23:44.480Z,36.78
2022-12-17T15:26:11.801Z,34.20
2022-12-17T15:28:38.818Z,45.17
2022-12-17T15:31:05.908Z,39.75
2022-12-17T15:33:32.805Z,37.90
2022-12-17T15:36:01.027Z,42.42
2022-12-17T15:38:27.775Z,41.20
2022-12-17T15:40:55.610Z,39.70
2022-12-17T15:43:22.364Z,36.67
2022-12-17T15:45:52.033Z,37.80
2022-12-17T15:48:23.415Z,38.50
2022-12-17T15:50:50.289Z,37.25
2022-12-17T15:53:17.389Z,38.53
2022-12-17T15:55:45.299Z,38.35
2022-12-17T15:58:12.200Z,40.83
2022-12-17T16:00:39.006Z,36.15
2022-12-17T16:03:07.268Z,35.33
2022-12-17T16:05:34.050Z,38.80
2022-12-17T16:08:02.580Z,38.42
2022-12-17T16:10:30.150Z,39.92
2022-12-17T16:12:57.081Z,37.88
2022-12-17T16:15:23.889Z,37.45
2022-12-17T16:17:50.844Z,38.30
2022-12-17T16:20:18.673Z,35.17
2022-12-17T16:22:45.531Z,36.70
2022-12-17T16:25:12.542Z,41.20
2022-12-17T16:27:39.683Z,38.45
2022-12-17T16:30:07.562Z,35.17
2022-12-17T16:32:36.638Z,36.35
2022-12-17T16:35:05.828Z,38.08
2022-12-17T16:37:32.607Z,43.78
2022-12-17T16:40:00.341Z,45.05
2022-12-17T16:42:27.471Z,37.22
2022-12-17T16:44:54.191Z,36.03
2022-12-17T16:47:20.912Z,37.42
2022-12-17T16:49:50.611Z,41.00
2022-12-17T16:52:17.425Z,38.65
2022-12-17T16:54:44.132Z,39.95
2022-12-17T16:57:10.845Z,38.35
2022-12-17T16:59:39.738Z,40.53
2022-12-17T17:02:13.500Z,40.70
2022-12-17T17:07:07.054Z,34.60
2022-12-17T17:09:33.890Z,34.22
2022-12-17T17:12:01.945Z,35.83
2022-12-17T17:14:28.684Z,36.58
2022-12-17T17:16:55.352Z,36.88
2022-12-17T17:19:22.685Z,37.92
2022-12-17T17:21:52.634Z,40.45
2022-12-17T17:24:22.317Z,33.95
2022-12-17T17:26:51.477Z,35.58
2022-12-17T17:29:18.583Z,35.15
2022-12-17T17:34:32.165Z,38.78
2022-12-17T17:36:58.856Z,42.42
2022-12-17T17:39:25.918Z,39.88
2022-12-17T17:41:54.029Z,44.50
2022-12-17T17:44:21.128Z,39.55
2022-12-17T17:46:47.875Z,46.13
2022-12-17T17:49:15.136Z,39.78
2022-12-17T17:54:30.238Z,37.80
2022-12-17T17:56:57.053Z,39.60
2022-12-17T17:59:29.595Z,37.42
2022-12-17T18:02:00.441Z,41.80
2022-12-17T18:04:27.785Z,41.80
2022-12-17T18:09:42.459Z,35.88
2022-12-17T18:12:27.801Z,36.13
2022-12-17T18:17:41.537Z,38.88
2022-12-17T18:20:09.779Z,36.55
2022-12-17T18:22:36.974Z,37.85
2022-12-17T18:25:05.169Z,39.28
2022-12-17T18:27:31.857Z,38.20
2022-12-17T18:29:58.838Z,47.25
2022-12-17T18:32:27.053Z,33.53
2022-12-17T18:34:53.857Z,39.92
2022-12-17T18:37:20.671Z,37.53
2022-12-17T18:39:48.379Z,41.83
2022-12-17T18:42:33.638Z,36.88
2022-12-17T18:45:00.439Z,39.30
2022-12-17T18:47:28.361Z,38.08
2022-12-17T18:49:56.351Z,46.03
2022-12-17T18:52:24.373Z,38.08
2022-12-17T18:54:51.179Z,43.28
2022-12-17T18:57:17.949Z,43.42
2022-12-17T18:59:44.622Z,43.80
2022-12-17T19:02:14.813Z,41.72
2022-12-17T19:04:42.292Z,44.25
2022-12-17T19:07:09.253Z,41.35
2022-12-17T19:09:36.630Z,43.30
2022-12-17T19:12:07.864Z,42.65
2022-12-17T19:14:35.084Z,44.72
2022-12-17T19:17:02.214Z,45.33
2022-12-17T19:19:29.269Z,45.42
2022-12-17T19:21:56.932Z,40.42
2022-12-17T19:24:24.051Z,42.83
2022-12-17T19:26:51.810Z,36.95
2022-12-17T19:29:20.475Z,38.47
2022-12-17T19:31:48.094Z,40.47
2022-12-17T19:34:17.953Z,47.00
2022-12-17T19:36:45.593Z,50.40
2022-12-17T19:39:18.189Z,54.35
2022-12-17T19:41:45.165Z,47.42
2022-12-17T19:44:14.456Z,48.25
2022-12-17T19:46:41.724Z,53.90
2022-12-17T19:49:11.249Z,54.53
2022-12-17T19:51:40.410Z,52.03
2022-12-17T19:54:09.254Z,51.03
2022-12-17T19:56:38.078Z,40.80
2022-12-17T19:59:07.506Z,43.42
2022-12-17T20:01:41.534Z,50.45
2022-12-17T20:04:10.392Z,42.67
2022-12-17T20:06:37.064Z,43.65
2022-12-17T20:09:07.355Z,43.08
2022-12-17T20:11:35.380Z,42.58
2022-12-17T20:14:09.066Z,41.10
2022-12-17T20:16:39.323Z,45.13
2022-12-17T20:19:08.130Z,42.90
2022-12-17T20:21:35.052Z,42.08
2022-12-17T20:24:02.059Z,47.17
2022-12-17T20:26:28.829Z,48.38
2022-12-17T20:28:55.919Z,42.17
2022-12-17T20:31:22.825Z,39.35
2022-12-17T20:33:49.603Z,40.90
2022-12-17T20:36:18.353Z,39.03
2022-12-17T20:38:45.604Z,40.33
2022-12-17T20:41:18.693Z,36.83
2022-12-17T20:43:46.256Z,38.35
2022-12-17T20:46:13.655Z,35.22
2022-12-17T20:48:43.869Z,35.33
2022-12-17T20:51:22.833Z,37.45
2022-12-17T20:53:50.023Z,38.13
2022-12-17T20:56:20.683Z,40.83
2022-12-17T20:58:47.671Z,35.75
2022-12-17T21:01:21.150Z,34.40
2022-12-17T21:03:50.601Z,36.70
2022-12-17T21:06:18.577Z,36.35
2022-12-17T21:08:50.209Z,38.78
2022-12-17T21:11:20.518Z,37.65
2022-12-17T21:13:47.441Z,36.42
2022-12-17T21:16:17.993Z,40.20
2022-12-17T21:18:45.269Z,35.88
2022-12-17T21:21:16.358Z,40.95
2022-12-17T21:23:48.263Z,36.03
2022-12-17T21:26:22.535Z,35.25
2022-12-17T21:28:52.399Z,37.78
2022-12-17T21:31:25.005Z,35.50
2022-12-17T21:33:54.763Z,34.75
2022-12-17T21:36:22.501Z,39.45
2022-12-17T21:38:50.185Z,38.15
2022-12-17T21:41:20.329Z,38.00
2022-12-17T21:43:47.077Z,39.88
2022-12-17T21:46:14.307Z,33.90
2022-12-17T21:48:42.863Z,35.92
2022-12-17T21:51:12.238Z,34.53
2022-12-17T21:53:42.775Z,33.97
2022-12-17T21:56:15.607Z,39.78
2022-12-17T21:58:44.233Z,35.50
2022-12-17T22:01:24.009Z,35.13
2022-12-17T22:03:53.818Z,32.58
2022-12-17T22:06:24.009Z,32.28
2022-12-17T22:09:03.122Z,42.67
2022-12-17T22:11:43.271Z,37.42
2022-12-17T22:14:18.819Z,36.90
2022-12-17T22:16:49.640Z,38.83
2022-12-17T22:19:23.992Z,37.20
2022-12-17T22:21:53.796Z,40.90
2022-12-17T22:24:26.691Z,40.95
2022-12-17T22:27:00.327Z,42.80
2022-12-17T22:29:49.269Z,39.63
2022-12-17T22:32:34.711Z,36.67
2022-12-17T22:36:47.909Z,37.22
2022-12-17T22:41:00.109Z,40.25
2022-12-17T22:44:20.073Z,30.85
2022-12-17T22:44:45.005Z,40.65
2022-12-17T22:46:19.490Z,38.35
2022-12-17T22:48:46.824Z,34.70
2022-12-17T22:51:19.233Z,39.75
2022-12-17T22:54:04.782Z,37.30
2022-12-17T22:56:56.969Z,42.70
2022-12-17T22:59:24.373Z,41.17
2022-12-17T23:01:51.173Z,34.35
2022-12-17T23:04:18.114Z,42.80
2022-12-17T23:06:45.945Z,40.95
2022-12-17T23:09:16.108Z,40.25
2022-12-17T23:11:42.819Z,42.95
2022-12-17T23:14:11.089Z,32.58
2022-12-17T23:16:38.807Z,36.40
2022-12-17T23:19:07.046Z,36.63
2022-12-17T23:21:34.467Z,41.83
2022-12-17T23:24:01.280Z,41.95
2022-12-17T23:26:36.380Z,39.78
2022-12-17T23:29:08.143Z,33.65
2022-12-17T23:31:38.362Z,38.10
2022-12-17T23:34:05.297Z,36.70
2022-12-17T23:36:32.820Z,38.40
2022-12-17T23:38:59.890Z,34.65
2022-12-17T23:41:29.624Z,31.75
2022-12-17T23:43:56.830Z,33.95
2022-12-17T23:46:25.191Z,37.90
2022-12-17T23:48:52.058Z,36.38
2022-12-17T23:51:21.726Z,38.70
2022-12-17T23:53:48.820Z,34.85
2022-12-17T23:56:21.992Z,33.47
2022-12-17T23:58:53.159Z,33.65
